createdAt,value
2022-12-11T00:00:31.546Z,98187.66
2022-12-11T00:03:05.225Z,98187.97
2022-12-11T00:05:33.640Z,98172.41
2022-12-11T00:08:03.156Z,98189.09
2022-12-11T00:10:37.573Z,98192.63
2022-12-11T00:13:06.276Z,98191.50
2022-12-11T00:15:34.307Z,98196.75
2022-12-11T00:18:02.554Z,98204.34
2022-12-11T00:20:30.565Z,98213.75
2022-12-11T00:22:58.741Z,98199.09
2022-12-11T00:25:28.114Z,98222.31
2022-12-11T00:27:56.204Z,98223.59
2022-12-11T00:30:24.337Z,98225.94
2022-12-11T00:32:58.433Z,98239.34
2022-12-11T00:35:26.613Z,98235.59
2022-12-11T00:37:58.055Z,98235.84
2022-12-11T00:40:27.414Z,98248.56
2022-12-11T00:42:55.712Z,98253.59
2022-12-11T00:45:23.725Z,98248.88
2022-12-11T00:47:51.862Z,98245.50
2022-12-11T00:50:19.931Z,98241.38
2022-12-11T00:52:47.922Z,98219.91
2022-12-11T00:55:15.956Z,98231.00
2022-12-11T00:57:45.370Z,98235.78
2022-12-11T01:00:17.445Z,98243.50
2022-12-11T01:02:45.501Z,98229.81
2022-12-11T01:05:13.640Z,98245.94
2022-12-11T01:07:41.803Z,98255.88
2022-12-11T01:10:27.254Z,98242.75
2022-12-11T01:12:58.533Z,98244.28
2022-12-11T01:15:28.417Z,98272.50
2022-12-11T01:17:59.670Z,98268.47
2022-12-11T01:20:29.105Z,98258.78
2022-12-11T01:22:59.831Z,98248.13
2022-12-11T01:25:29.416Z,98266.50
2022-12-11T01:27:58.828Z,98264.94
2022-12-11T01:30:27.358Z,98270.66
2022-12-11T01:33:01.310Z,98263.69
2022-12-11T01:35:32.666Z,98271.59
2022-12-11T01:38:00.746Z,98260.66
2022-12-11T01:40:28.747Z,98267.47
2022-12-11T01:42:58.209Z,98263.25
2022-12-11T01:45:38.700Z,98276.06
2022-12-11T01:48:12.406Z,98262.59
2022-12-11T01:50:45.760Z,98270.53
2022-12-11T01:53:18.646Z,98248.41
2022-12-11T01:55:50.983Z,98275.69
2022-12-11T01:58:22.080Z,98273.97
2022-12-11T02:00:50.240Z,98274.06
2022-12-11T02:03:18.295Z,98279.03
2022-12-11T02:05:46.460Z,98276.44
2022-12-11T02:08:14.865Z,98272.72
2022-12-11T02:10:58.930Z,98277.38
2022-12-11T02:13:36.293Z,98283.94
2022-12-11T02:16:16.014Z,98282.19
2022-12-11T02:18:50.598Z,98285.66
2022-12-11T02:21:23.290Z,98280.66
2022-12-11T02:24:25.787Z,98279.31
2022-12-11T02:27:22.593Z,98282.94
2022-12-11T02:29:55.058Z,98297.94
2022-12-11T02:32:27.516Z,98284.09
2022-12-11T02:35:01.457Z,98298.41
2022-12-11T02:37:32.398Z,98298.22
2022-12-11T02:40:00.444Z,98283.47
2022-12-11T02:42:34.474Z,98292.09
2022-12-11T02:45:06.093Z,98281.16
2022-12-11T02:47:34.630Z,98292.47
2022-12-11T02:50:07.570Z,98288.03
2022-12-11T02:52:40.530Z,98278.69
2022-12-11T02:55:11.293Z,98273.66
2022-12-11T02:57:44.137Z,98280.44
2022-12-11T03:00:18.750Z,98271.44
2022-12-11T03:02:47.594Z,98262.19
2022-12-11T03:05:16.648Z,98279.31
2022-12-11T03:07:45.662Z,98260.09
2022-12-11T03:10:16.865Z,98272.72
2022-12-11T03:12:53.951Z,98260.88
2022-12-11T03:15:30.352Z,98271.03
2022-12-11T03:18:05.106Z,98280.03
2022-12-11T03:20:39.378Z,98272.28
2022-12-11T03:23:21.250Z,98275.75
2022-12-11T03:25:55.041Z,98275.94
2022-12-11T03:28:28.781Z,98253.19
2022-12-11T03:30:58.189Z,98276.47
2022-12-11T03:33:35.780Z,98274.25
2022-12-11T03:36:08.275Z,98278.88
2022-12-11T03:38:40.332Z,98285.94
2022-12-11T03:41:10.304Z,98281.81
2022-12-11T03:43:39.974Z,98266.47
2022-12-11T03:46:11.736Z,98273.72
2022-12-11T03:48:42.837Z,98281.28
2022-12-11T03:51:11.186Z,98286.34
2022-12-11T03:53:40.365Z,98290.41
2022-12-11T03:56:11.557Z,98294.72
2022-12-11T03:58:39.977Z,98293.38
2022-12-11T04:01:12.008Z,98301.41
2022-12-11T04:03:40.686Z,98283.88
2022-12-11T04:06:09.108Z,98276.22
2022-12-11T04:08:37.264Z,98289.97
2022-12-11T04:11:23.269Z,98294.34
2022-12-11T04:14:11.407Z,98285.34
2022-12-11T04:16:39.795Z,98271.53
2022-12-11T04:19:25.264Z,98281.97
2022-12-11T04:22:10.435Z,98261.63
2022-12-11T04:24:38.408Z,98277.41
2022-12-11T04:27:06.443Z,98282.47
2022-12-11T04:29:34.543Z,98278.66
2022-12-11T04:32:06.894Z,98273.34
2022-12-11T04:34:36.975Z,98274.16
2022-12-11T04:37:04.967Z,98273.91
2022-12-11T04:39:33.055Z,98277.09
2022-12-11T04:42:04.217Z,98273.13
2022-12-11T04:44:32.219Z,98280.97
2022-12-11T04:47:00.186Z,98254.78
2022-12-11T04:49:32.330Z,98260.34
2022-12-11T04:52:00.368Z,98271.22
2022-12-11T04:54:30.279Z,98270.81
2022-12-11T04:56:58.263Z,98263.84
2022-12-11T04:59:29.521Z,98276.50
2022-12-11T05:01:57.708Z,98283.78
2022-12-11T05:04:25.930Z,98284.06
2022-12-11T05:06:55.357Z,98285.59
2022-12-11T05:09:23.457Z,98265.06
2022-12-11T05:11:51.778Z,98255.72
2022-12-11T05:14:20.034Z,98283.78
2022-12-11T05:16:48.478Z,98269.78
2022-12-11T05:19:20.166Z,98265.03
2022-12-11T05:21:48.109Z,98254.44
2022-12-11T05:24:17.589Z,98278.00
2022-12-11T05:26:45.611Z,98278.84
2022-12-11T05:29:13.644Z,98266.97
2022-12-11T05:31:41.856Z,98273.31
2022-12-11T05:34:13.034Z,98276.38
2022-12-11T05:36:41.548Z,98279.78
2022-12-11T05:39:09.930Z,98280.34
2022-12-11T05:41:39.384Z,98272.38
2022-12-11T05:44:07.385Z,98264.19
2022-12-11T05:46:35.839Z,98272.81
2022-12-11T05:49:03.898Z,98280.34
2022-12-11T05:51:34.368Z,98266.66
2022-12-11T05:54:02.684Z,98273.84
2022-12-11T05:56:33.741Z,98291.31
2022-12-11T05:59:09.600Z,98290.50
2022-12-11T06:01:42.388Z,98280.72
2022-12-11T06:04:12.049Z,98290.03
2022-12-11T06:06:41.540Z,98279.63
2022-12-11T06:09:09.689Z,98275.97
2022-12-11T06:11:37.711Z,98278.44
2022-12-11T06:14:07.171Z,98273.91
2022-12-11T06:16:35.181Z,98270.28
2022-12-11T06:19:03.397Z,98262.16
2022-12-11T06:21:33.202Z,98262.22
2022-12-11T06:24:06.832Z,98250.97
2022-12-11T06:26:34.784Z,98263.03
2022-12-11T06:29:05.291Z,98260.44
2022-12-11T06:31:38.500Z,98240.19
2022-12-11T06:34:06.576Z,98255.22
2022-12-11T06:36:34.591Z,98254.25
2022-12-11T06:39:02.584Z,98233.78
2022-12-11T06:41:30.549Z,98248.25
2022-12-11T06:43:58.567Z,98244.69
2022-12-11T06:46:26.619Z,98254.22
2022-12-11T06:48:56.100Z,98247.31
2022-12-11T06:51:24.912Z,98248.94
2022-12-11T06:53:54.086Z,98251.50
2022-12-11T06:56:26.242Z,98263.59
2022-12-11T06:59:07.072Z,98271.25
2022-12-11T07:01:37.753Z,98282.69
2022-12-11T07:04:13.678Z,98267.97
2022-12-11T07:06:42.560Z,98260.97
2022-12-11T07:09:19.280Z,98266.06
2022-12-11T07:11:52.886Z,98272.81
2022-12-11T07:14:22.481Z,98265.16
2022-12-11T07:16:51.711Z,98277.66
2022-12-11T07:19:22.209Z,98277.91
2022-12-11T07:21:51.363Z,98283.25
2022-12-11T07:24:20.851Z,98280.47
2022-12-11T07:26:49.355Z,98283.25
2022-12-11T07:29:18.626Z,98286.50
2022-12-11T07:31:46.655Z,98294.06
2022-12-11T07:34:15.278Z,98275.97
2022-12-11T07:36:44.840Z,98275.88
2022-12-11T07:39:13.719Z,98290.31
2022-12-11T07:41:41.740Z,98282.69
2022-12-11T07:44:10.031Z,98295.69
2022-12-11T07:46:37.994Z,98292.94
2022-12-11T07:49:06.995Z,98302.50
2022-12-11T07:51:36.817Z,98308.16
2022-12-11T07:54:08.593Z,98300.03
2022-12-11T07:56:37.427Z,98298.47
2022-12-11T07:59:07.565Z,98299.56
2022-12-11T08:01:36.786Z,98294.59
2022-12-11T08:04:05.906Z,98297.13
2022-12-11T08:06:36.247Z,98294.50
2022-12-11T08:09:08.277Z,98283.22
2022-12-11T08:11:36.622Z,98299.34
2022-12-11T08:14:06.526Z,98297.69
2022-12-11T08:16:34.664Z,98291.66
2022-12-11T08:19:02.729Z,98283.19
2022-12-11T08:21:30.717Z,98276.44
2022-12-11T08:23:58.719Z,98300.19
2022-12-11T08:26:30.061Z,98301.06
2022-12-11T08:28:58.714Z,98306.78
2022-12-11T08:31:27.475Z,98305.16
2022-12-11T08:33:57.234Z,98294.66
2022-12-11T08:36:26.298Z,98300.97
2022-12-11T08:38:56.324Z,98299.97
2022-12-11T08:41:26.574Z,98299.16
2022-12-11T08:43:56.361Z,98294.66
2022-12-11T08:46:25.875Z,98289.75
2022-12-11T08:48:54.225Z,98288.09
2022-12-11T08:51:23.664Z,98272.09
2022-12-11T08:53:52.402Z,98282.16
2022-12-11T08:56:23.706Z,98266.72
2022-12-11T08:58:52.367Z,98270.06
2022-12-11T09:01:24.402Z,98271.75
2022-12-11T09:03:53.734Z,98275.03
2022-12-11T09:06:23.382Z,98277.72
2022-12-11T09:08:53.603Z,98277.47
2022-12-11T09:11:24.652Z,98273.28
2022-12-11T09:13:53.124Z,98263.59
2022-12-11T09:16:24.404Z,98266.28
2022-12-11T09:18:55.133Z,98269.75
2022-12-11T09:21:25.144Z,98261.03
2022-12-11T09:23:54.685Z,98260.53
2022-12-11T09:26:23.144Z,98268.84
2022-12-11T09:28:53.369Z,98241.91
2022-12-11T09:31:27.665Z,98255.63
2022-12-11T09:33:57.932Z,98244.22
2022-12-11T09:36:26.389Z,98247.03
2022-12-11T09:38:54.886Z,98247.28
2022-12-11T09:41:37.981Z,98253.06
2022-12-11T09:44:32.321Z,98245.63
2022-12-11T09:47:02.390Z,98206.63
2022-12-11T09:49:38.949Z,98232.25
2022-12-11T09:52:13.931Z,98235.81
2022-12-11T09:54:49.224Z,98238.84
2022-12-11T09:57:30.205Z,98241.78
2022-12-11T10:00:13.735Z,98243.47
2022-12-11T10:03:01.527Z,98225.34
2022-12-11T10:05:52.029Z,98219.38
2022-12-11T10:08:27.962Z,98216.81
2022-12-11T10:11:04.923Z,98205.97
2022-12-11T10:13:45.615Z,98202.50
2022-12-11T10:16:21.600Z,98208.84
2022-12-11T10:18:56.126Z,98193.72
2022-12-11T10:21:25.950Z,98202.81
2022-12-11T10:24:03.345Z,98202.09
2022-12-11T10:26:32.684Z,98189.31
2022-12-11T10:29:02.692Z,98187.34
2022-12-11T10:31:44.347Z,98183.91
2022-12-11T10:34:18.176Z,98182.78
2022-12-11T10:36:46.534Z,98183.78
2022-12-11T10:39:19.854Z,98165.78
2022-12-11T10:41:52.866Z,98170.22
2022-12-11T10:44:23.373Z,98164.84
2022-12-11T10:47:04.142Z,98165.81
2022-12-11T10:49:35.956Z,98159.84
2022-12-11T10:52:12.062Z,98154.22
2022-12-11T10:54:46.250Z,98147.66
2022-12-11T10:57:16.411Z,98146.41
2022-12-11T10:59:48.429Z,98149.25
2022-12-11T11:02:26.550Z,98147.16
2022-12-11T11:05:00.845Z,98121.13
2022-12-11T11:07:31.181Z,98130.22
2022-12-11T11:10:16.412Z,98141.81
2022-12-11T11:12:46.581Z,98116.81
2022-12-11T11:15:16.835Z,98128.41
2022-12-11T11:17:54.489Z,98125.19
2022-12-11T11:20:27.037Z,98130.50
2022-12-11T11:23:00.144Z,98128.28
2022-12-11T11:25:31.480Z,98128.63
2022-12-11T11:28:02.504Z,98127.00
2022-12-11T11:30:33.536Z,98117.56
2022-12-11T11:33:06.818Z,98112.25
2022-12-11T11:35:39.005Z,98132.88
2022-12-11T11:38:18.596Z,98128.88
2022-12-11T11:40:52.310Z,98131.53
2022-12-11T11:43:30.401Z,98124.56
2022-12-11T11:46:06.044Z,98107.03
2022-12-11T11:48:41.160Z,98122.03
2022-12-11T11:51:22.444Z,98130.66
2022-12-11T11:53:52.609Z,98134.75
2022-12-11T11:56:23.754Z,98121.41
2022-12-11T11:59:02.383Z,98114.03
2022-12-11T12:01:31.596Z,98125.28
2022-12-11T12:04:00.176Z,98125.75
2022-12-11T12:06:38.738Z,98133.00
2022-12-11T12:09:19.312Z,98124.44
2022-12-11T12:11:54.812Z,98125.72
2022-12-11T12:14:51.818Z,98121.25
2022-12-11T12:17:24.276Z,98136.50
2022-12-11T12:20:04.005Z,98125.09
2022-12-11T12:22:52.630Z,98104.66
2022-12-11T12:25:26.914Z,98114.63
2022-12-11T12:28:01.326Z,98103.66
2022-12-11T12:30:41.214Z,98108.31
2022-12-11T12:33:28.372Z,98106.22
2022-12-11T12:36:12.371Z,98112.06
2022-12-11T12:38:52.521Z,98114.53
2022-12-11T12:41:26.696Z,98127.38
2022-12-11T12:44:08.408Z,98122.63
2022-12-11T12:46:50.139Z,98108.03
2022-12-11T12:49:34.112Z,98108.84
2022-12-11T12:52:08.385Z,98112.19
2022-12-11T12:54:39.818Z,98110.56
2022-12-11T12:57:08.534Z,98101.84
2022-12-11T12:59:36.674Z,98118.16
2022-12-11T13:02:07.530Z,98125.59
2022-12-11T13:04:55.424Z,98119.03
2022-12-11T13:07:30.187Z,98129.56
2022-12-11T13:10:08.081Z,98127.28
2022-12-11T13:12:43.661Z,98122.50
2022-12-11T13:15:35.020Z,98125.16
2022-12-11T13:18:05.210Z,98132.50
2022-12-11T13:20:35.077Z,98117.88
2022-12-11T13:23:27.288Z,98123.66
2022-12-11T13:25:58.670Z,98120.34
2022-12-11T13:28:31.338Z,98120.69
2022-12-11T13:31:02.700Z,98124.13
2022-12-11T13:33:31.618Z,98125.34
2022-12-11T13:36:24.801Z,98116.34
2022-12-11T13:38:56.390Z,98123.56
2022-12-11T13:41:26.134Z,98124.88
2022-12-11T13:43:54.943Z,98132.75
2022-12-11T13:46:27.718Z,98143.38
2022-12-11T13:49:01.030Z,98142.00
2022-12-11T13:51:31.825Z,98122.88
2022-12-11T13:54:16.760Z,98141.50
2022-12-11T13:56:57.152Z,98145.78
2022-12-11T13:59:29.088Z,98143.16
2022-12-11T14:02:01.342Z,98132.94
2022-12-11T14:04:31.474Z,98139.72
2022-12-11T14:07:00.539Z,98146.66
2022-12-11T14:09:29.840Z,98140.31
2022-12-11T14:11:59.815Z,98132.03
2022-12-11T14:14:39.792Z,98142.56
2022-12-11T14:17:07.926Z,98136.69
2022-12-11T14:19:36.062Z,98129.94
2022-12-11T14:22:08.014Z,98143.84
2022-12-11T14:24:36.104Z,98125.66
2022-12-11T14:27:05.891Z,98138.41
2022-12-11T14:29:34.963Z,98132.56
2022-12-11T14:32:05.940Z,98145.63
2022-12-11T14:34:38.172Z,98138.78
2022-12-11T14:37:08.452Z,98119.97
2022-12-11T14:39:40.590Z,98138.97
2022-12-11T14:42:15.290Z,98136.63
2022-12-11T14:44:50.441Z,98141.41
2022-12-11T14:47:22.157Z,98127.00
2022-12-11T14:49:54.443Z,98133.94
2022-12-11T14:52:27.471Z,98127.53
2022-12-11T14:55:01.308Z,98135.88
2022-12-11T14:57:32.467Z,98138.22
2022-12-11T15:00:00.832Z,98140.03
2022-12-11T15:02:32.487Z,98133.47
2022-12-11T15:05:18.111Z,98132.97
2022-12-11T15:07:57.120Z,98125.78
2022-12-11T15:10:31.648Z,98120.78
2022-12-11T15:13:02.433Z,98112.56
2022-12-11T15:15:34.938Z,98114.28
2022-12-11T15:18:09.499Z,98074.88
2022-12-11T15:20:42.311Z,98117.72
2022-12-11T15:23:15.513Z,98112.16
2022-12-11T15:25:52.917Z,98113.03
2022-12-11T15:28:29.279Z,98106.47
2022-12-11T15:30:59.189Z,98107.31
2022-12-11T15:33:33.867Z,98105.84
2022-12-11T15:36:05.703Z,98102.16
2022-12-11T15:38:36.922Z,98101.44
2022-12-11T15:41:05.959Z,98101.75
2022-12-11T15:43:38.554Z,98102.56
2022-12-11T15:46:07.588Z,98109.44
2022-12-11T15:48:35.775Z,98092.47
2022-12-11T15:51:04.823Z,98097.66
2022-12-11T15:53:32.924Z,98077.59
2022-12-11T15:56:01.480Z,98065.69
2022-12-11T15:58:30.212Z,98110.69
2022-12-11T16:01:02.607Z,98094.34
2022-12-11T16:03:32.169Z,98106.97
2022-12-11T16:06:00.262Z,98104.50
2022-12-11T16:08:28.327Z,98107.91
2022-12-11T16:10:57.394Z,98105.16
2022-12-11T16:13:26.505Z,98099.38
2022-12-11T16:15:55.394Z,98103.75
2022-12-11T16:18:26.658Z,98104.94
2022-12-11T16:20:55.604Z,98083.84
2022-12-11T16:23:54.618Z,98100.16
2022-12-11T16:26:25.773Z,98097.56
2022-12-11T16:28:54.581Z,98078.75
2022-12-11T16:31:25.052Z,98099.66
2022-12-11T16:33:55.667Z,98076.59
2022-12-11T16:36:24.647Z,98031.41
2022-12-11T16:38:54.335Z,98075.69
2022-12-11T16:41:25.005Z,98092.63
2022-12-11T16:43:54.700Z,98071.44
2022-12-11T16:46:25.399Z,98072.94
2022-12-11T16:48:55.400Z,98017.38
2022-12-11T16:51:27.646Z,98060.69
2022-12-11T16:53:58.666Z,98091.91
2022-12-11T16:56:31.586Z,98102.16
2022-12-11T16:59:00.187Z,98099.69
2022-12-11T17:01:28.673Z,98092.63
2022-12-11T17:04:08.888Z,98086.56
2022-12-11T17:06:38.283Z,98068.41
2022-12-11T17:09:08.372Z,98089.44
2022-12-11T17:11:39.652Z,98087.72
2022-12-11T17:14:07.821Z,98084.84
2022-12-11T17:16:35.868Z,98085.88
2022-12-11T17:19:07.424Z,98088.56
2022-12-11T17:21:35.494Z,98079.59
2022-12-11T17:24:03.542Z,98083.50
2022-12-11T17:26:31.686Z,98086.66
2022-12-11T17:29:00.015Z,98094.38
2022-12-11T17:31:28.406Z,98097.75
2022-12-11T17:33:57.419Z,98078.59
2022-12-11T17:36:27.233Z,98091.53
2022-12-11T17:38:55.424Z,98084.84
2022-12-11T17:41:23.560Z,98099.19
2022-12-11T17:43:52.953Z,98104.63
2022-12-11T17:46:21.982Z,98105.94
2022-12-11T17:48:50.157Z,98100.94
2022-12-11T17:51:23.990Z,98085.09
2022-12-11T17:53:55.413Z,98105.72
2022-12-11T17:56:24.101Z,98095.41
2022-12-11T17:58:52.334Z,98107.75
2022-12-11T18:01:21.583Z,98105.34
2022-12-11T18:03:49.934Z,98093.75
2022-12-11T18:06:18.701Z,98098.22
2022-12-11T18:08:46.957Z,98103.44
2022-12-11T18:11:19.126Z,98096.00
2022-12-11T18:13:47.602Z,98113.22
2022-12-11T18:16:18.222Z,98109.97
2022-12-11T18:18:47.787Z,98104.25
2022-12-11T18:21:17.570Z,98106.75
2022-12-11T18:23:45.762Z,98110.75
2022-12-11T18:26:14.663Z,98097.13
2022-12-11T18:28:44.827Z,98111.09
2022-12-11T18:31:13.671Z,98104.16
2022-12-11T18:33:43.793Z,98098.00
2022-12-11T18:36:12.899Z,98102.34
2022-12-11T18:38:42.143Z,98089.25
2022-12-11T18:41:12.345Z,98108.34
2022-12-11T18:43:40.721Z,98112.13
2022-12-11T18:46:14.814Z,98108.56
2022-12-11T18:48:43.597Z,98112.03
2022-12-11T18:51:13.348Z,98119.34
2022-12-11T18:53:41.893Z,98123.88
2022-12-11T18:56:12.171Z,98100.28
2022-12-11T18:58:40.395Z,98133.06
2022-12-11T19:01:12.534Z,98139.25
2022-12-11T19:03:41.584Z,98129.47
2022-12-11T19:06:12.172Z,98148.53
2022-12-11T19:08:41.094Z,98132.28
2022-12-11T19:11:10.455Z,98147.69
2022-12-11T19:13:39.743Z,98152.91
2022-12-11T19:16:15.982Z,98148.16
2022-12-11T19:18:45.917Z,98153.19
2022-12-11T19:21:20.960Z,98141.53
2022-12-11T19:23:49.163Z,98162.13
2022-12-11T19:26:20.015Z,98148.34
2022-12-11T19:28:49.220Z,98149.25
2022-12-11T19:31:23.859Z,98145.41
2022-12-11T19:33:52.177Z,98135.53
2022-12-11T19:36:24.364Z,98144.09
2022-12-11T19:38:57.963Z,98141.47
2022-12-11T19:41:29.462Z,98146.41
2022-12-11T19:43:59.367Z,98140.47
2022-12-11T19:46:29.645Z,98141.72
2022-12-11T19:48:58.785Z,98148.25
2022-12-11T19:51:29.778Z,98142.72
2022-12-11T19:53:58.470Z,98142.81
2022-12-11T19:56:30.915Z,98130.97
2022-12-11T19:59:01.180Z,98144.94
2022-12-11T20:01:31.877Z,98149.31
2022-12-11T20:04:01.655Z,98140.84
2022-12-11T20:06:31.040Z,98143.34
2022-12-11T20:08:59.847Z,98125.06
2022-12-11T20:11:28.335Z,98154.19
2022-12-11T20:13:57.177Z,98142.06
2022-12-11T20:16:46.234Z,98143.63
2022-12-11T20:19:15.249Z,98152.22
2022-12-11T20:21:44.116Z,98138.16
2022-12-11T20:24:12.813Z,98143.88
2022-12-11T20:26:40.869Z,98151.69
2022-12-11T20:29:09.508Z,98136.31
2022-12-11T20:31:38.764Z,98149.44
2022-12-11T20:34:07.876Z,98140.69
2022-12-11T20:36:37.729Z,98138.94
2022-12-11T20:39:06.200Z,98149.34
2022-12-11T20:41:34.422Z,98134.13
2022-12-11T20:44:02.772Z,98131.53
2022-12-11T20:46:30.861Z,98114.00
2022-12-11T20:48:59.835Z,98128.34
2022-12-11T20:51:29.190Z,98142.88
2022-12-11T20:53:59.732Z,98138.59
2022-12-11T20:56:30.000Z,98141.72
2022-12-11T20:58:59.401Z,98144.94
2022-12-11T21:01:30.205Z,98137.44
2022-12-11T21:03:58.714Z,98127.28
2022-12-11T21:06:31.446Z,98132.47
2022-12-11T21:09:04.457Z,98141.38
2022-12-11T21:11:35.947Z,98137.00
2022-12-11T21:14:04.666Z,98115.88
2022-12-11T21:16:33.207Z,98136.03
2022-12-11T21:19:01.679Z,98141.03
2022-12-11T21:21:36.184Z,98143.44
2022-12-11T21:24:06.275Z,98135.72
2022-12-11T21:26:35.728Z,98141.94
2022-12-11T21:29:04.929Z,98140.22
2022-12-11T21:31:33.019Z,98131.81
2022-12-11T21:34:02.568Z,98131.88
2022-12-11T21:36:30.639Z,98133.53
2022-12-11T21:39:00.018Z,98133.38
2022-12-11T21:41:30.261Z,98125.91
2022-12-11T21:46:46.502Z,98134.53
2022-12-11T21:49:14.570Z,98134.97
2022-12-11T21:51:47.170Z,98124.63
2022-12-11T21:54:19.001Z,98120.88
2022-12-11T21:56:48.550Z,98098.72
2022-12-11T21:59:16.788Z,98125.38
2022-12-11T22:01:47.120Z,98110.88
2022-12-11T22:04:16.506Z,98138.28
2022-12-11T22:06:47.094Z,98129.16
2022-12-11T22:09:15.768Z,98133.34
2022-12-11T22:11:46.211Z,98128.47
2022-12-11T22:14:18.359Z,98127.97
2022-12-11T22:16:46.745Z,98137.72
2022-12-11T22:19:14.970Z,98118.66
2022-12-11T22:22:57.426Z,98146.78
2022-12-11T22:25:25.648Z,98142.50
2022-12-11T22:27:53.800Z,98148.50
2022-12-11T22:30:23.193Z,98115.19
2022-12-11T22:32:51.190Z,98151.25
2022-12-11T22:35:24.120Z,98147.50
2022-12-11T22:37:55.423Z,98163.47
2022-12-11T22:40:23.703Z,98153.19
2022-12-11T22:42:51.764Z,98153.00
2022-12-11T22:45:20.007Z,98158.09
2022-12-11T22:47:49.397Z,98155.75
2022-12-11T22:50:18.527Z,98161.59
2022-12-11T22:52:46.542Z,98160.38
2022-12-11T22:55:15.796Z,98160.97
2022-12-11T22:57:46.573Z,98154.44
2022-12-11T23:00:15.629Z,98161.28
2022-12-11T23:02:44.058Z,98160.97
2022-12-11T23:05:14.132Z,98160.53
2022-12-11T23:07:42.745Z,98166.50
2022-12-11T23:10:11.820Z,98163.13
2022-12-11T23:12:39.867Z,98156.34
2022-12-11T23:15:09.463Z,98165.72
2022-12-11T23:17:37.681Z,98161.19
2022-12-11T23:20:07.256Z,98156.84
2022-12-11T23:22:36.674Z,98165.97
2022-12-11T23:25:05.187Z,98156.63
2022-12-11T23:27:33.202Z,98165.97
2022-12-11T23:30:01.225Z,98161.81
2022-12-11T23:32:29.256Z,98102.50
2022-12-11T23:34:57.321Z,98176.50
2022-12-11T23:37:25.345Z,98171.22
2022-12-11T23:39:54.918Z,98169.47
2022-12-11T23:42:23.029Z,98165.25
2022-12-11T23:44:51.067Z,98143.22
2022-12-11T23:47:19.077Z,98166.91
2022-12-11T23:49:47.097Z,98134.72
2022-12-11T23:52:15.368Z,98150.06
2022-12-11T23:54:43.400Z,98152.03
2022-12-11T23:57:12.894Z,98156.13
2022-12-11T23:59:40.964Z,98158.16
